Time;durP1;ratioP1;P1;durP2;ratioP2;P2;SDS_P1;SDS_P2;PMS_P1;PMS_P2;Temp;Humidity;BMP_temperature;BMP_pressure;BME280_temperature;BME280_humidity;BME280_pressure;Samples;Min_cycle;Max_cycle;Signal;HPM_P1;HPM_P2
2021/08/08 00:03:02;;;;;;;;;;;15.40;99.90;;;14.50;100.00;95234.81;10303677;28;2600;-79
2021/08/08 00:08:04;;;;;;;;;;;15.50;99.90;;;14.50;100.00;95252.94;10282940;28;2695;-79
2021/08/08 00:13:07;;;;;;;;;;;15.50;99.90;;;14.50;100.00;95226.69;10296014;28;2341;-78
2021/08/08 00:18:10;;;;;;;;;;;15.50;99.90;;;14.52;100.00;95221.78;10308581;28;2388;-80
2021/08/08 00:23:13;;;;;;;;;;;15.50;99.90;;;14.53;100.00;95230.69;10308033;28;2285;-79
2021/08/08 00:28:15;;;;;;;;;;;15.50;99.90;;;14.55;100.00;95226.56;10288507;28;2318;-80
2021/08/08 00:33:18;;;;;;;;;;;15.50;99.90;;;14.56;100.00;95238.97;10310687;28;2053;-79
2021/08/08 00:38:21;;;;;;;;;;;15.60;99.90;;;14.60;100.00;95222.94;10308916;28;1940;-79
2021/08/08 00:43:24;;;;;;;;;;;15.50;99.90;;;14.62;100.00;95203.69;10299351;28;2373;-79
2021/08/08 00:48:26;;;;;;;;;;;15.60;99.90;;;14.62;100.00;95204.47;10298917;28;2397;-80
2021/08/08 00:53:29;;;;;;;;;;;15.60;99.90;;;14.64;100.00;95207.69;10304123;28;2377;-79
2021/08/08 00:58:32;;;;;;;;;;;15.60;99.90;;;14.66;100.00;95213.56;10281959;28;2405;-78
2021/08/08 01:03:35;;;;;;;;;;;15.60;99.90;;;14.66;100.00;95212.78;10282204;28;2305;-80
2021/08/08 01:08:37;;;;;;;;;;;15.70;99.90;;;14.54;100.00;95240.41;10282897;28;2165;-79
2021/08/08 01:13:40;;;;;;;;;;;15.60;99.90;;;14.41;100.00;95269.09;10284441;28;2290;-79
2021/08/08 01:19:03;;;;;;;;;;;15.50;99.90;;;14.29;100.00;95255.34;10300379;28;2363;-79
2021/08/08 01:24:06;;;;;;;;;;;15.40;99.90;;;14.26;100.00;95261.38;10311397;28;2427;-80
2021/08/08 01:29:08;;;;;;;;;;;15.30;99.90;;;14.26;100.00;95255.97;10292858;28;2141;-79
2021/08/08 01:34:11;;;;;;;;;;;15.30;99.90;;;14.24;100.00;95242.75;10280838;28;2538;-78
2021/08/08 01:39:14;;;;;;;;;;;15.30;99.90;;;14.18;100.00;95262.09;10285690;28;2477;-81
2021/08/08 01:44:17;;;;;;;;;;;15.20;99.90;;;14.21;100.00;95246.09;10293495;28;2394;-78
2021/08/08 01:49:19;;;;;;;;;;;15.20;99.90;;;14.17;100.00;95247.00;10280039;28;2496;-78
2021/08/08 01:54:22;;;;;;;;;;;15.20;99.90;;;14.11;100.00;95245.53;10286253;28;2504;-79
2021/08/08 01:59:25;;;;;;;;;;;15.20;99.90;;;14.06;100.00;95251.88;10288157;28;2406;-78
2021/08/08 02:04:28;;;;;;;;;;;15.10;99.90;;;13.99;100.00;95263.09;10277985;28;2555;-79
2021/08/08 02:09:31;;;;;;;;;;;15.00;99.90;;;14.04;100.00;95276.50;10279489;28;2534;-78
2021/08/08 02:14:33;;;;;;;;;;;15.00;99.90;;;14.03;100.00;95284.91;10286957;28;2497;-80
2021/08/08 02:19:36;;;;;;;;;;;15.00;99.90;;;14.13;100.00;95289.28;10290306;28;2436;-79
2021/08/08 02:24:39;;;;;;;;;;;15.10;99.90;;;14.06;100.00;95301.31;10287917;28;2471;-79
2021/08/08 02:29:41;;;;;;;;;;;15.10;99.90;;;14.04;100.00;95298.13;10288033;28;2570;-78
2021/08/08 02:34:44;;;;;;;;;;;15.10;99.90;;;14.06;100.00;95316.75;10297098;28;2692;-80
2021/08/08 02:39:47;;;;;;;;;;;15.10;99.90;;;14.01;100.00;95306.84;10294974;28;2554;-78
2021/08/08 02:44:50;;;;;;;;;;;15.00;99.90;;;13.95;100.00;95305.38;10296529;28;2541;-80
2021/08/08 02:49:52;;;;;;;;;;;15.00;99.90;;;13.88;100.00;95304.19;10306973;28;2636;-79
2021/08/08 02:54:55;;;;;;;;;;;14.90;99.90;;;13.85;100.00;95316.41;10313418;28;2009;-81
2021/08/08 02:59:58;;;;;;;;;;;14.90;99.90;;;13.79;100.00;95301.41;10284606;28;2504;-80
2021/08/08 03:05:01;;;;;;;;;;;14.80;99.90;;;13.77;100.00;95314.44;10287826;28;2955;-80
2021/08/08 03:10:04;;;;;;;;;;;14.80;99.90;;;13.79;100.00;95317.63;10289676;28;2170;-79
2021/08/08 03:15:07;;;;;;;;;;;14.80;99.90;;;13.80;100.00;95332.72;10287625;28;2467;-79
2021/08/08 03:20:09;;;;;;;;;;;14.80;99.90;;;13.78;100.00;95346.53;10298347;28;2780;-81
2021/08/08 03:25:12;;;;;;;;;;;14.80;99.90;;;13.81;100.00;95353.25;10298084;28;2024;-79
2021/08/08 03:30:15;;;;;;;;;;;14.80;99.90;;;13.81;100.00;95350.56;10283583;28;2428;-78
2021/08/08 03:35:18;;;;;;;;;;;14.80;99.90;;;13.78;100.00;95359.25;10278674;28;2498;-81
2021/08/08 03:40:20;;;;;;;;;;;14.80;99.90;;;13.81;100.00;95369.47;10293961;28;2534;-79
2021/08/08 03:45:23;;;;;;;;;;;14.80;99.90;;;13.81;100.00;95380.25;10286336;28;2472;-79
2021/08/08 03:50:26;;;;;;;;;;;14.80;99.90;;;13.82;100.00;95375.66;10304298;28;2749;-78
2021/08/08 03:55:29;;;;;;;;;;;14.80;99.90;;;13.78;100.00;95394.38;10303324;28;2549;-80
2021/08/08 04:00:32;;;;;;;;;;;14.80;99.90;;;13.78;100.00;95399.75;10305913;28;2540;-80
2021/08/08 04:05:35;;;;;;;;;;;14.80;99.90;;;13.82;100.00;95395.38;10296384;28;2504;-79
2021/08/08 04:10:38;;;;;;;;;;;14.80;99.90;;;13.83;100.00;95407.75;10311049;28;2515;-81
2021/08/08 04:15:41;;;;;;;;;;;14.90;99.90;;;13.84;100.00;95412.06;10321120;28;2554;-79
2021/08/08 04:21:04;;;;;;;;;;;14.80;99.90;;;13.89;100.00;95421.97;10305822;28;2332;-79
2021/08/08 04:26:07;;;;;;;;;;;14.90;99.90;;;13.94;100.00;95428.06;10317690;28;2500;-79
2021/08/08 04:31:09;;;;;;;;;;;14.90;99.90;;;13.99;100.00;95424.44;10308865;28;2495;-80
2021/08/08 04:36:12;;;;;;;;;;;14.90;99.90;;;14.06;100.00;95431.06;10294542;28;2543;-81
2021/08/08 04:41:15;;;;;;;;;;;15.00;99.90;;;14.15;100.00;95433.81;10302262;28;2405;-80
2021/08/08 04:46:18;;;;;;;;;;;15.10;99.90;;;14.16;100.00;95448.13;10282373;28;2448;-79
2021/08/08 04:51:21;;;;;;;;;;;15.10;99.90;;;14.29;100.00;95450.00;10298634;28;3032;-78
2021/08/08 04:56:24;;;;;;;;;;;15.20;99.90;;;14.38;100.00;95453.59;10293313;28;2412;-80
2021/08/08 05:01:26;;;;;;;;;;;15.30;99.90;;;14.43;100.00;95437.22;10292666;28;2590;-80
2021/08/08 05:06:29;;;;;;;;;;;15.30;99.90;;;14.56;100.00;95449.94;10282494;28;2909;-79
2021/08/08 05:11:32;;;;;;;;;;;15.40;99.90;;;14.68;100.00;95443.19;10300243;28;2204;-80
2021/08/08 05:16:35;;;;;;;;;;;15.60;99.90;;;14.82;100.00;95433.91;10296079;28;2530;-81
2021/08/08 05:21:38;;;;;;;;;;;15.70;99.90;;;15.17;100.00;95450.34;10300269;28;2609;-79
2021/08/08 05:26:41;;;;;;;;;;;15.90;99.90;;;15.38;100.00;95456.03;10305253;28;2506;-80
2021/08/08 05:31:44;;;;;;;;;;;16.10;99.90;;;15.60;100.00;95463.31;10284723;28;2605;-80
2021/08/08 05:36:46;;;;;;;;;;;16.30;99.90;;;15.58;100.00;95458.19;10283546;28;4158;-81
2021/08/08 05:41:49;;;;;;;;;;;16.40;99.90;;;15.66;100.00;95460.19;10285524;28;2169;-80
2021/08/08 05:46:52;;;;;;;;;;;16.50;99.90;;;15.76;100.00;95459.09;10282121;28;2147;-81
2021/08/08 05:51:55;;;;;;;;;;;16.60;99.90;;;16.01;97.79;95460.28;10286161;28;2385;-80
2021/08/08 05:56:57;;;;;;;;;;;16.60;99.90;;;16.13;98.14;95457.75;10281040;28;2466;-78
2021/08/08 06:02:00;;;;;;;;;;;16.90;99.90;;;16.41;96.68;95460.16;10284672;28;2538;-80
2021/08/08 06:07:03;;;;;;;;;;;17.10;99.90;;;16.52;95.04;95463.38;10292284;28;2136;-80
2021/08/08 06:12:07;;;;;;;;;;;17.30;99.90;;;16.81;93.96;95466.28;10286479;28;2569;-80
2021/08/08 06:17:10;;;;;;;;;;;17.40;99.90;;;16.80;92.16;95474.75;10302341;28;2613;-79
2021/08/08 06:22:14;;;;;;;;;;;17.50;99.90;;;16.58;92.57;95468.31;10280410;28;2573;-79
2021/08/08 06:27:17;;;;;;;;;;;17.50;99.90;;;16.47;91.21;95475.19;10280016;28;2433;-79
2021/08/08 06:32:19;;;;;;;;;;;17.50;99.90;;;16.36;92.81;95476.63;10290901;28;2598;-80
2021/08/08 06:37:22;;;;;;;;;;;17.30;99.90;;;16.20;95.32;95481.69;10278184;28;2550;-80
2021/08/08 06:42:25;;;;;;;;;;;17.20;99.90;;;16.34;93.90;95479.63;10300255;28;2486;-77
2021/08/08 06:47:27;;;;;;;;;;;17.20;99.90;;;16.39;94.07;95482.19;10303042;28;2092;-80
2021/08/08 06:52:30;;;;;;;;;;;17.20;99.90;;;16.74;91.81;95476.84;10292115;28;2601;-79
2021/08/08 06:57:33;;;;;;;;;;;17.30;99.90;;;16.88;92.63;95492.94;10282353;28;2529;-82
2021/08/08 07:02:36;;;;;;;;;;;17.50;99.90;;;17.13;89.53;95494.84;10279000;28;2543;-82
2021/08/08 07:07:39;;;;;;;;;;;17.70;99.90;;;17.10;88.30;95498.19;10294479;28;3002;-81
2021/08/08 07:12:42;;;;;;;;;;;17.80;99.90;;;17.22;87.52;95497.53;10294788;28;2519;-82
2021/08/08 07:17:45;;;;;;;;;;;17.90;99.90;;;17.34;88.48;95502.31;10303216;28;2226;-80
2021/08/08 07:22:48;;;;;;;;;;;18.00;99.90;;;17.42;86.91;95510.44;10292889;28;2500;-80
2021/08/08 07:27:51;;;;;;;;;;;18.10;99.90;;;17.61;87.24;95510.06;10305910;28;2285;-80
2021/08/08 07:32:54;;;;;;;;;;;18.20;99.90;;;17.73;86.57;95501.25;10300848;28;2403;-80
2021/08/08 07:37:59;;;;;;;;;;;18.40;99.90;;;17.77;85.59;95502.22;10301210;28;2452;-83
2021/08/08 07:43:02;;;;;;;;;;;18.60;99.90;;;18.32;84.65;95498.56;10302690;28;2538;-80
2021/08/08 07:48:05;;;;;;;;;;;18.80;99.90;;;18.27;82.35;95505.03;10287879;28;1978;-83
2021/08/08 07:53:08;;;;;;;;;;;19.00;99.90;;;18.33;82.29;95500.19;10290177;28;2216;-82
2021/08/08 07:58:11;;;;;;;;;;;19.20;99.90;;;18.63;78.33;95504.47;10303680;28;2145;-84
2021/08/08 08:03:14;;;;;;;;;;;19.30;99.90;;;19.06;78.22;95499.84;10284443;28;2587;-84
2021/08/08 08:08:18;;;;;;;;;;;19.50;99.90;;;19.49;73.21;95504.06;10291321;28;2479;-81
2021/08/08 08:13:21;;;;;;;;;;;19.90;99.90;;;19.56;71.96;95493.41;10296978;28;2406;-82
2021/08/08 08:18:24;;;;;;;;;;;20.10;99.90;;;19.91;73.36;95488.38;10286599;28;1949;-83
2021/08/08 08:23:27;;;;;;;;;;;20.50;99.90;;;20.61;69.67;95488.25;10278979;28;2347;-81
2021/08/08 08:28:30;;;;;;;;;;;20.90;99.90;;;20.93;62.24;95498.22;10289691;28;2281;-81
2021/08/08 08:33:33;;;;;;;;;;;21.40;99.90;;;20.86;64.58;95505.38;10282399;28;2476;-82
2021/08/08 08:38:39;;;;;;;;;;;21.30;99.90;;;20.81;61.41;95511.09;10292880;28;2302;-82
2021/08/08 08:43:43;;;;;;;;;;;21.30;99.90;;;20.44;65.05;95498.28;10304175;28;2345;-83
2021/08/08 08:48:46;;;;;;;;;;;21.10;99.90;;;20.91;63.10;95508.66;10297168;28;2355;-83
2021/08/08 08:53:49;;;;;;;;;;;21.20;99.90;;;20.62;64.72;95506.25;10296465;28;2368;-79
2021/08/08 08:58:52;;;;;;;;;;;21.30;99.90;;;21.20;63.06;95506.75;10300307;28;2306;-81
2021/08/08 09:03:58;;;;;;;;;;;21.60;99.90;;;21.27;61.46;95507.75;10282575;28;2313;-80
2021/08/08 09:09:01;;;;;;;;;;;21.90;99.90;;;21.33;62.02;95502.84;10293745;28;2563;-80
2021/08/08 09:14:04;;;;;;;;;;;22.00;99.90;;;22.12;60.18;95505.72;10291583;28;2278;-80
2021/08/08 09:19:07;;;;;;;;;;;22.50;99.90;;;22.53;55.64;95498.88;10277713;28;2316;-81
2021/08/08 09:24:09;;;;;;;;;;;22.80;99.90;;;22.39;58.28;95504.00;10292658;28;2380;-81
2021/08/08 09:29:12;;;;;;;;;;;22.90;99.90;;;22.97;57.08;95504.16;10298376;28;2327;-82
2021/08/08 09:34:15;;;;;;;;;;;23.50;99.90;;;23.47;53.26;95502.41;10291285;28;2761;-82
2021/08/08 09:39:18;;;;;;;;;;;23.90;99.90;;;23.31;54.98;95501.72;10270397;28;2539;-80
2021/08/08 09:44:21;;;;;;;;;;;24.10;99.90;;;23.50;53.42;95500.91;10268077;28;2468;-81
2021/08/08 09:49:23;;;;;;;;;;;24.20;99.90;;;22.95;51.90;95500.97;10277017;28;2585;-82
2021/08/08 09:54:26;;;;;;;;;;;23.80;99.90;;;22.95;53.44;95500.97;10274781;28;2729;-81
2021/08/08 09:59:29;;;;;;;;;;;23.60;99.90;;;23.40;51.36;95507.75;10275568;28;2400;-81
2021/08/08 10:04:34;;;;;;;;;;;23.80;99.90;;;23.23;50.97;95513.69;10274925;28;2551;-81
2021/08/08 10:09:37;;;;;;;;;;;23.80;99.90;;;23.25;50.73;95511.38;10274533;28;2456;-79
2021/08/08 10:14:39;;;;;;;;;;;23.90;99.90;;;23.65;48.50;95513.75;10291143;28;2353;-81
2021/08/08 10:19:42;;;;;;;;;;;24.00;99.90;;;23.17;50.85;95522.22;10310953;28;2302;-79
2021/08/08 10:24:45;;;;;;;;;;;24.00;99.90;;;22.88;52.24;95520.00;10314579;28;2350;-78
2021/08/08 10:29:48;;;;;;;;;;;23.90;99.90;;;22.93;50.02;95514.25;10284541;28;2563;-79
2021/08/08 10:34:51;;;;;;;;;;;23.60;99.90;;;22.88;49.39;95520.00;10290296;28;2345;-82
2021/08/08 10:39:53;;;;;;;;;;;23.40;99.90;;;22.90;49.68;95520.44;10295949;28;2412;-81
2021/08/08 10:44:59;;;;;;;;;;;23.50;99.90;;;23.38;50.19;95518.31;10298596;28;2420;-82
2021/08/08 10:50:01;;;;;;;;;;;23.90;99.90;;;24.07;47.47;95508.22;10301794;28;2701;-79
2021/08/08 10:55:04;;;;;;;;;;;24.30;99.90;;;23.92;49.63;95507.22;10314106;28;2357;-79
2021/08/08 11:00:07;;;;;;;;;;;24.70;99.90;;;24.14;47.80;95496.56;10311552;28;2314;-81
2021/08/08 11:05:09;;;;;;;;;;;24.80;99.90;;;24.22;45.71;95492.78;10280406;28;2706;-82
2021/08/08 11:10:12;;;;;;;;;;;24.80;99.90;;;24.20;46.32;95495.91;10289732;28;2303;-82
2021/08/08 11:15:15;;;;;;;;;;;24.80;99.90;;;24.52;43.44;95490.94;10280829;28;2277;-80
2021/08/08 11:20:18;;;;;;;;;;;24.90;99.90;;;23.94;44.02;95488.41;10292656;28;2341;-78
2021/08/08 11:25:22;;;;;;;;;;;24.80;99.90;;;24.51;44.30;95483.06;10280530;28;2387;-81
2021/08/08 11:30:25;;;;;;;;;;;25.00;99.90;;;24.38;42.40;95476.19;10285647;28;2351;-81
2021/08/08 11:35:29;;;;;;;;;;;25.20;99.90;;;24.94;42.68;95475.38;10277730;28;2440;-80
2021/08/08 11:40:36;;;;;;;;;;;25.10;99.90;;;24.33;41.39;95490.19;10277072;28;2356;-80
2021/08/08 11:45:39;;;;;;;;;;;25.20;99.90;;;23.98;40.93;95499.44;10266632;28;2432;-80
2021/08/08 11:50:42;;;;;;;;;;;24.80;99.90;;;23.26;43.11;95504.75;10276739;28;2374;-81
2021/08/08 11:55:45;;;;;;;;;;;24.30;99.90;;;22.26;46.87;95506.03;10271191;28;2444;-80
2021/08/08 12:00:47;;;;;;;;;;;23.50;99.90;;;22.42;47.30;95508.78;10268936;28;2587;-79
2021/08/08 12:05:50;;;;;;;;;;;23.10;99.90;;;22.50;46.75;95521.47;10301987;28;2386;-80
2021/08/08 12:10:54;;;;;;;;;;;23.10;99.90;;;21.81;48.72;95531.09;10289627;28;2428;-81
2021/08/08 12:15:57;;;;;;;;;;;22.80;99.90;;;21.28;51.08;95541.34;10307075;28;2734;-79
2021/08/08 12:21:00;;;;;;;;;;;22.50;99.90;;;20.62;51.07;95569.84;10311581;28;2593;-80
2021/08/08 12:26:03;;;;;;;;;;;22.00;99.90;;;20.23;51.75;95576.72;10315990;28;2344;-81
2021/08/08 12:31:06;;;;;;;;;;;21.50;99.90;;;20.28;54.06;95568.31;10307456;28;2514;-78
2021/08/08 12:36:09;;;;;;;;;;;21.30;99.90;;;20.35;50.82;95546.72;10278061;28;2504;-80
2021/08/08 12:41:12;;;;;;;;;;;21.10;99.90;;;20.99;50.54;95545.19;10283913;28;2554;-80
2021/08/08 12:46:15;;;;;;;;;;;21.50;99.90;;;21.71;47.73;95543.34;10266686;28;2655;-81
2021/08/08 12:51:18;;;;;;;;;;;21.90;99.90;;;22.30;47.76;95544.47;10266899;28;2833;-79
2021/08/08 12:56:21;;;;;;;;;;;22.50;99.90;;;22.24;46.84;95556.84;10267505;28;2909;-80
2021/08/08 13:01:24;;;;;;;;;;;22.80;99.90;;;21.17;48.93;95553.91;10269727;28;2522;-79
2021/08/08 13:06:27;;;;;;;;;;;22.30;99.90;;;20.85;50.45;95572.09;10267940;28;2423;-79
2021/08/08 13:11:30;;;;;;;;;;;21.80;99.90;;;20.15;49.28;95577.63;10273377;28;2765;-80
2021/08/08 13:16:33;;;;;;;;;;;21.20;99.90;;;19.78;51.96;95588.47;10292940;28;2704;-79
2021/08/08 13:21:36;;;;;;;;;;;20.80;99.90;;;20.18;53.24;95580.50;10322455;28;2617;-79
2021/08/08 13:26:38;;;;;;;;;;;20.80;99.90;;;20.59;52.36;95577.91;10297484;28;2381;-79
2021/08/08 13:31:41;;;;;;;;;;;21.10;99.90;;;20.44;52.06;95579.38;10299016;28;2408;-80
2021/08/08 13:36:44;;;;;;;;;;;21.20;99.90;;;20.07;52.90;95575.81;10290322;28;2362;-82
2021/08/08 13:41:47;;;;;;;;;;;21.00;99.90;;;20.04;55.01;95581.94;10307003;28;2341;-81
2021/08/08 13:46:50;;;;;;;;;;;21.00;99.90;;;19.90;52.75;95588.50;10328202;28;2061;-79
2021/08/08 13:51:53;;;;;;;;;;;20.90;99.90;;;19.92;52.27;95588.97;10302550;28;2294;-81
2021/08/08 13:56:55;;;;;;;;;;;20.80;99.90;;;20.25;52.50;95590.84;10298076;28;2276;-80
2021/08/08 14:01:58;;;;;;;;;;;20.90;99.90;;;20.09;52.96;95592.63;10291692;28;2390;-80
2021/08/08 14:07:01;;;;;;;;;;;20.90;99.90;;;19.71;53.51;95601.84;10292945;28;2461;-82
2021/08/08 14:12:04;;;;;;;;;;;20.90;99.90;;;19.71;54.88;95607.31;10285702;28;2277;-80
2021/08/08 14:17:07;;;;;;;;;;;20.60;99.90;;;19.63;54.93;95611.72;10282713;28;2742;-80
2021/08/08 14:22:10;;;;;;;;;;;20.50;99.90;;;19.44;56.84;95617.63;10287085;28;2328;-79
2021/08/08 14:27:12;;;;;;;;;;;20.40;99.90;;;19.36;58.79;95615.78;10274758;28;2407;-80
2021/08/08 14:32:15;;;;;;;;;;;20.40;99.90;;;19.04;60.64;95617.31;10286230;28;2330;-80
2021/08/08 14:37:18;;;;;;;;;;;20.20;99.90;;;18.56;67.44;95615.00;10292134;28;2389;-79
2021/08/08 14:42:21;;;;;;;;;;;19.90;99.90;;;17.86;74.76;95640.84;10296270;28;2373;-78
2021/08/08 14:47:23;;;;;;;;;;;19.30;99.90;;;17.58;74.84;95634.94;10303953;28;2302;-79
2021/08/08 14:52:26;;;;;;;;;;;18.90;99.90;;;17.83;76.39;95645.81;10290219;28;2242;-79
2021/08/08 14:57:29;;;;;;;;;;;18.80;99.90;;;17.70;76.78;95657.66;10284886;28;2409;-80
2021/08/08 15:02:32;;;;;;;;;;;18.80;99.90;;;17.80;79.34;95643.72;10282327;28;2424;-79
2021/08/08 15:07:35;;;;;;;;;;;18.70;99.90;;;18.16;75.00;95649.91;10287116;28;2402;-81
2021/08/08 15:12:37;;;;;;;;;;;18.90;99.90;;;18.22;79.29;95654.84;10281093;28;2471;-79
2021/08/08 15:17:40;;;;;;;;;;;19.10;99.90;;;18.29;76.29;95644.25;10282552;28;2421;-80
2021/08/08 15:22:43;;;;;;;;;;;19.10;99.90;;;18.77;72.72;95642.31;10297041;28;2381;-80
2021/08/08 15:27:46;;;;;;;;;;;19.40;99.90;;;18.99;69.93;95638.50;10304860;28;2262;-78
2021/08/08 15:32:48;;;;;;;;;;;19.70;99.90;;;18.87;70.66;95648.16;10298575;28;2277;-81
2021/08/08 15:37:52;;;;;;;;;;;19.80;99.90;;;19.24;69.23;95650.34;10286057;28;2327;-80
2021/08/08 15:42:55;;;;;;;;;;;20.00;99.90;;;19.11;66.75;95652.19;10277988;28;2344;-78
2021/08/08 15:47:58;;;;;;;;;;;20.00;99.90;;;19.02;69.27;95659.63;10289074;28;2301;-78
2021/08/08 15:53:00;;;;;;;;;;;19.90;99.90;;;18.89;67.02;95659.56;10305764;28;2349;-80
2021/08/08 15:58:03;;;;;;;;;;;19.80;99.90;;;18.85;67.64;95665.97;10289971;28;1918;-79
2021/08/08 16:03:06;;;;;;;;;;;19.70;99.90;;;18.58;67.02;95669.94;10282216;28;2783;-79
2021/08/08 16:08:09;;;;;;;;;;;19.60;99.90;;;18.34;68.89;95693.06;10291741;28;2729;-80
2021/08/08 16:13:12;;;;;;;;;;;19.50;99.90;;;18.15;69.70;95686.41;10283784;28;2696;-79
2021/08/08 16:18:14;;;;;;;;;;;19.20;99.90;;;18.03;70.15;95703.38;10283553;28;1768;-78
2021/08/08 16:23:17;;;;;;;;;;;19.10;99.90;;;17.97;71.52;95704.66;10311243;28;1358;-79
2021/08/08 16:28:20;;;;;;;;;;;19.00;99.90;;;17.92;71.11;95707.53;10283849;28;1980;-79
2021/08/08 16:33:23;;;;;;;;;;;18.90;99.90;;;17.80;72.40;95733.44;10282400;28;1564;-80
2021/08/08 16:38:25;;;;;;;;;;;18.80;99.90;;;17.79;71.91;95742.72;10292456;28;1415;-80
2021/08/08 16:43:28;;;;;;;;;;;18.70;99.90;;;17.74;72.67;95748.31;10280021;28;1723;-79
2021/08/08 16:48:32;;;;;;;;;;;18.70;99.90;;;17.82;72.19;95736.66;10279294;28;1969;-81
2021/08/08 16:53:35;;;;;;;;;;;18.70;99.90;;;17.70;72.41;95741.91;10290470;28;1625;-80
2021/08/08 16:58:38;;;;;;;;;;;18.70;99.90;;;17.56;73.35;95752.16;10300284;28;1368;-81
2021/08/08 17:03:41;;;;;;;;;;;18.50;99.90;;;17.40;74.41;95759.94;10309586;28;1612;-78
2021/08/08 17:08:44;;;;;;;;;;;18.40;99.90;;;17.33;79.22;95762.34;10322797;28;1985;-80
2021/08/08 17:13:47;;;;;;;;;;;18.30;99.90;;;17.19;80.24;95775.25;10314320;28;1522;-81
2021/08/08 17:18:49;;;;;;;;;;;18.30;99.90;;;17.01;82.08;95755.38;10295205;28;1521;-80
2021/08/08 17:23:52;;;;;;;;;;;18.10;99.90;;;17.01;82.05;95752.66;10289675;28;1481;-80
2021/08/08 17:28:55;;;;;;;;;;;18.00;99.90;;;17.08;80.96;95766.56;10293446;28;1918;-81
2021/08/08 17:33:58;;;;;;;;;;;17.90;99.90;;;17.07;80.86;95775.03;10305877;28;1086;-81
2021/08/08 17:39:01;;;;;;;;;;;18.00;99.90;;;16.97;80.87;95778.84;10321276;28;1570;-81
2021/08/08 17:44:04;;;;;;;;;;;18.00;99.90;;;17.01;80.25;95783.34;10288936;28;1145;-82
2021/08/08 17:49:06;;;;;;;;;;;17.90;99.90;;;16.95;79.06;95791.94;10292869;28;1887;-80
2021/08/08 17:54:09;;;;;;;;;;;17.90;99.90;;;16.86;80.66;95797.34;10301785;28;1580;-80
2021/08/08 17:59:12;;;;;;;;;;;17.80;99.90;;;16.83;80.41;95794.44;10291376;28;1509;-82
2021/08/08 18:04:15;;;;;;;;;;;17.80;99.90;;;16.82;81.13;95800.97;10294409;28;1562;-80
2021/08/08 18:09:18;;;;;;;;;;;17.80;99.90;;;16.74;79.61;95814.19;10294189;28;1895;-81
2021/08/08 18:14:21;;;;;;;;;;;17.70;99.90;;;16.71;78.24;95814.81;10290537;28;1667;-78
2021/08/08 18:19:23;;;;;;;;;;;17.70;99.90;;;16.65;78.45;95813.31;10286039;28;2237;-83
2021/08/08 18:24:26;;;;;;;;;;;17.60;99.90;;;16.58;78.62;95807.53;10275809;28;2511;-78
2021/08/08 18:29:29;;;;;;;;;;;17.60;99.90;;;16.66;77.39;95823.03;10280131;28;2699;-82
2021/08/08 18:34:32;;;;;;;;;;;17.60;99.90;;;16.50;78.02;95802.84;10285055;28;2391;-79
2021/08/08 18:39:35;;;;;;;;;;;17.50;99.90;;;16.35;78.74;95808.66;10286978;28;2415;-80
2021/08/08 18:44:37;;;;;;;;;;;17.40;99.90;;;16.35;78.00;95822.22;10289606;28;2371;-80
2021/08/08 18:49:40;;;;;;;;;;;17.30;99.90;;;16.33;78.55;95835.28;10307978;28;2432;-81
2021/08/08 18:54:43;;;;;;;;;;;17.30;99.90;;;16.30;78.11;95846.78;10307969;28;2460;-81
2021/08/08 18:59:46;;;;;;;;;;;17.30;99.90;;;16.29;77.86;95859.53;10298144;28;2343;-81
2021/08/08 19:04:49;;;;;;;;;;;17.30;99.90;;;16.25;77.84;95865.88;10277214;28;2698;-81
2021/08/08 19:09:53;;;;;;;;;;;17.20;99.90;;;16.25;78.43;95879.44;10284113;28;2416;-80
2021/08/08 19:14:56;;;;;;;;;;;17.20;99.90;;;16.25;78.48;95882.16;10291493;28;2469;-80
2021/08/08 19:19:59;;;;;;;;;;;17.20;99.90;;;16.20;78.00;95891.19;10291888;28;2772;-80
2021/08/08 19:25:02;;;;;;;;;;;17.20;99.90;;;16.20;78.17;95892.00;10285226;28;2801;-80
2021/08/08 19:30:05;;;;;;;;;;;17.20;99.90;;;16.14;78.59;95897.84;10292890;28;2766;-80
2021/08/08 19:35:09;;;;;;;;;;;17.10;99.90;;;16.08;79.14;95902.56;10282319;28;2336;-80
2021/08/08 19:40:12;;;;;;;;;;;17.10;99.90;;;16.07;78.08;95903.69;10281557;28;2631;-81
2021/08/08 19:45:15;;;;;;;;;;;17.00;99.90;;;16.04;79.21;95912.44;10289628;28;2388;-79
2021/08/08 19:50:18;;;;;;;;;;;17.00;99.90;;;16.05;79.05;95922.19;10296397;28;2387;-80
2021/08/08 19:55:21;;;;;;;;;;;17.00;99.90;;;16.13;78.27;95929.59;10309010;28;2347;-79
2021/08/08 20:00:24;;;;;;;;;;;17.00;99.90;;;16.06;78.26;95934.63;10301496;28;2790;-79
2021/08/08 20:05:26;;;;;;;;;;;17.00;99.90;;;16.08;78.47;95940.53;10285147;28;2428;-81
2021/08/08 20:10:29;;;;;;;;;;;17.00;99.90;;;16.03;78.89;95950.69;10288908;28;2416;-80
2021/08/08 20:15:32;;;;;;;;;;;17.00;99.90;;;16.01;79.35;95942.88;10302821;28;2372;-80
2021/08/08 20:20:35;;;;;;;;;;;17.00;99.90;;;16.00;78.70;95940.47;10304745;28;2408;-78
2021/08/08 20:25:38;;;;;;;;;;;17.00;99.90;;;15.94;79.79;95948.69;10315952;28;2387;-79
2021/08/08 20:31:00;;;;;;;;;;;16.90;99.90;;;15.91;79.27;95953.94;10303765;28;2333;-78
2021/08/08 20:36:03;;;;;;;;;;;16.90;99.90;;;15.93;79.90;95960.66;10281441;28;2409;-79
2021/08/08 20:41:06;;;;;;;;;;;16.90;99.90;;;15.97;79.39;95960.03;10293016;28;2352;-79
2021/08/08 20:46:10;;;;;;;;;;;16.90;99.90;;;15.84;79.91;95969.78;10310840;28;2372;-79
2021/08/08 20:51:13;;;;;;;;;;;16.90;99.90;;;15.84;80.87;95973.31;10307615;28;2242;-81
2021/08/08 20:56:15;;;;;;;;;;;16.90;99.90;;;15.77;80.70;95975.59;10292268;28;2309;-80
2021/08/08 21:01:18;;;;;;;;;;;16.80;99.90;;;15.65;81.40;95972.63;10299615;28;2302;-78
2021/08/08 21:06:21;;;;;;;;;;;16.70;99.90;;;15.50;81.45;95976.38;10288101;28;2365;-79
2021/08/08 21:11:27;;;;;;;;;;;16.60;99.90;;;15.37;82.15;95977.97;10291354;28;2322;-78
2021/08/08 21:16:30;;;;;;;;;;;16.50;99.90;;;15.37;82.63;95977.97;10300590;28;2382;-79
2021/08/08 21:21:33;;;;;;;;;;;16.40;99.90;;;15.35;82.11;95980.19;10313965;28;2341;-79
2021/08/08 21:26:35;;;;;;;;;;;16.30;99.90;;;15.30;82.15;95982.16;10309001;28;2314;-77
2021/08/08 21:31:38;;;;;;;;;;;16.40;99.90;;;15.27;82.04;95982.75;10315388;28;2267;-77
2021/08/08 21:36:41;;;;;;;;;;;16.30;99.90;;;15.35;81.65;96001.03;10309194;28;2040;-78
2021/08/08 21:41:44;;;;;;;;;;;16.30;99.90;;;15.44;81.17;95998.44;10328696;28;2329;-78
2021/08/08 21:46:47;;;;;;;;;;;16.30;99.90;;;15.41;81.06;96005.28;10303879;28;2329;-79
2021/08/08 21:51:50;;;;;;;;;;;16.40;99.90;;;15.35;82.14;96006.47;10317889;28;2293;-81
2021/08/08 21:56:52;;;;;;;;;;;16.40;99.90;;;15.31;81.76;96013.56;10305521;28;2249;-78
2021/08/08 22:01:55;;;;;;;;;;;16.30;99.90;;;15.34;81.81;96010.28;10309667;28;2288;-81
2021/08/08 22:06:58;;;;;;;;;;;16.30;99.90;;;15.37;81.36;96013.19;10303420;28;2309;-78
2021/08/08 22:12:01;;;;;;;;;;;16.30;99.90;;;15.49;80.79;96010.00;10287386;28;2664;-79
2021/08/08 22:17:04;;;;;;;;;;;16.40;99.90;;;15.46;80.60;96021.44;10285097;28;2404;-80
2021/08/08 22:22:06;;;;;;;;;;;16.40;99.90;;;15.48;81.04;96021.94;10287271;28;2258;-79
2021/08/08 22:27:09;;;;;;;;;;;16.40;99.90;;;15.51;80.58;96020.53;10312549;28;2167;-80
2021/08/08 22:32:12;;;;;;;;;;;16.40;99.90;;;15.52;80.14;96022.13;10288484;28;2433;-80
2021/08/08 22:37:15;;;;;;;;;;;16.40;99.90;;;15.52;80.84;96017.50;10288969;28;2312;-79
2021/08/08 22:42:17;;;;;;;;;;;16.40;99.90;;;15.54;81.31;96011.81;10298185;28;2316;-79
2021/08/08 22:47:20;;;;;;;;;;;16.50;99.90;;;15.52;81.51;96014.78;10290460;28;2311;-80
2021/08/08 22:52:23;;;;;;;;;;;16.50;99.90;;;15.52;81.79;96017.50;10287496;28;2365;-79
2021/08/08 22:57:26;;;;;;;;;;;16.50;99.90;;;15.48;82.88;96021.94;10279089;28;2239;-79
2021/08/08 23:02:28;;;;;;;;;;;16.50;99.90;;;15.44;82.55;96029.03;10279542;28;2269;-79
2021/08/08 23:07:31;;;;;;;;;;;16.40;99.90;;;15.40;82.91;96028.03;10289484;28;2318;-79